Latest Weather Observations for Coober Pedy Airport

IDS60801

Issued at 1:01 pm CDT Monday 27 January 2020 (issued every 10 minutes, with the page automatically refreshed every 10 minutes)

About weather observations | Map of weather stations | Latest weather observations for SA | Other Formats
Station Details ID: 016090 Name: COOBER PEDY AIRPORT Lat: -29.03 Lon: 134.72 Height: 225.0 m
Data from the previous 72 hours. | See also: Recent months at Coober Pedy Airport
Date/Time
CDT
Temp
°C
App
Temp
°C
Dew
Point
°C
Rel
Hum
%
Delta-T
°C
Wind Press
QNH
hPa
Press
MSL
hPa
Rain since
9am
mm
Dir  Spd
km/h
Gust
km/h
Spd
kts
Gust
kts
27/01:00pm 35.3 - - - - SSE 19 35 10 19 1013.6 1012.0 0.0
27/12:30pm 35.1 - - - - SE 15 28 8 15 1013.9 1012.3 0.0
27/12:00pm 34.2 - - - - ESE 17 24 9 13 1014.2 1012.6 0.0
27/11:30am 32.9 - - - - ESE 17 26 9 14 1014.5 1012.9 0.0
27/11:00am 31.8 - - - - SE 20 26 11 14 1014.6 1013.0 0.0
27/10:30am 30.9 - - - - SSE 20 28 11 15 1014.8 1013.2 0.0
27/10:00am 29.7 - - - - SSE 20 28 11 15 1014.9 1013.3 0.0
27/09:30am 28.6 - - - - SSE 20 28 11 15 1014.8 1013.2 0.0
27/09:00am 27.2 - - - - SSE 22 28 12 15 1014.9 1013.3 0.0
27/08:30am 26.0 - - - - SSE 24 28 13 15 1014.3 1012.7 0.0
27/08:00am 24.5 - - - - S 19 22 10 12 1014.1 1012.5 0.0
27/07:30am 23.9 - - - - S 19 20 10 11 1013.8 1012.2 0.0
27/07:00am 23.8 - - - - S 19 22 10 12 1013.7 1012.1 0.0
27/06:30am 24.1 - - - - S 19 22 10 12 1013.5 1011.9 0.0
27/06:00am 24.5 - - - - S 20 24 11 13 1013.3 1011.7 0.0
27/05:30am 24.9 - - - - S 20 24 11 13 1013.1 1011.5 0.0
27/05:00am 25.4 - - - - SSE 22 28 12 15 1012.9 1011.3 0.0
27/04:30am 25.9 - - - - S 24 30 13 16 1012.6 1011.1 0.0
27/04:00am 26.4 - - - - S 24 32 13 17 1012.6 1011.1 0.0
27/03:30am 27.0 - - - - SSE 24 32 13 17 1012.5 1011.0 0.0
27/03:00am 27.5 - - - - S 22 26 12 14 1012.6 1011.1 0.0
27/02:30am 28.1 - - - - SE 19 22 10 12 1012.4 1010.9 0.0
27/02:00am 28.6 - - - - SE 19 22 10 12 1012.8 1011.2 0.0
27/01:30am 28.8 - - - - SE 19 22 10 12 1013.1 1011.5 0.0
27/01:00am 29.3 - - - - SE 19 24 10 13 1013.3 1011.7 0.0
27/12:30am 29.2 - - - - SSE 15 17 8 9 1013.2 1011.6 0.0
27/12:00am 30.0 - - - - SSE 15 17 8 9 1013.2 1011.6 0.0
 
Date/Time
CDT
Temp
°C
App
Temp
°C
Dew
Point
°C
Rel
Hum
%
Delta-T
°C
Wind Press
QNH
hPa
Press
MSL
hPa
Rain since
9am
mm
Dir  Spd
km/h
Gust
km/h
Spd
kts
Gust
kts
26/11:30pm 30.7 - - - - SSE 17 19 9 10 1013.0 1011.4 0.0
26/11:00pm 31.3 - - - - SSE 15 19 8 10 1012.9 1011.3 0.0
26/10:30pm 31.6 - - - - SSE 13 15 7 8 1012.6 1011.1 0.0
26/10:00pm 32.4 - - - - SSE 15 17 8 9 1012.4 1010.9 0.0
26/09:30pm 33.3 - - - - SSE 15 19 8 10 1012.0 1010.5 0.0
26/09:00pm 34.1 - - - - SSE 17 22 9 12 1011.8 1010.3 0.0
26/08:30pm 34.6 - - - - S 19 26 10 14 1011.5 1010.0 0.0
26/08:00pm 35.4 - - - - SSE 19 30 10 16 1011.2 1009.7 0.0
26/07:30pm 35.7 - - - - SSE 19 26 10 14 1011.0 1009.4 0.0
26/07:00pm 35.8 - - - - S 22 30 12 16 1010.8 1009.2 0.0
26/06:30pm 36.1 - - - - S 19 28 10 15 1010.6 1009.0 0.0
26/06:00pm 36.1 - - - - S 19 33 10 18 1010.8 1009.2 0.0
26/05:30pm 36.1 - - - - SSW 17 26 9 14 1011.0 1009.4 0.0
26/05:00pm 35.8 - - - - S 13 24 7 13 1011.1 1009.6 0.0
26/04:30pm 35.5 - - - - SSE 17 26 9 14 1011.4 1009.9 0.0
26/04:00pm 35.3 - - - - S 15 32 8 17 1011.7 1010.2 0.0
26/03:48pm 35.5 - - - - S 26 46 14 25 1011.9 1010.4 0.0
26/03:30pm 35.2 - - - - S 20 37 11 20 1012.2 1010.7 0.0
26/03:00pm 35.1 - - - - SE 17 32 9 17 1012.6 1011.1 0.0
26/02:30pm 34.8 - - - - SSE 17 30 9 16 1013.2 1011.6 0.0
26/02:00pm 33.9 - - - - SE 19 33 10 18 1013.7 1012.1 0.0
26/01:30pm 33.6 - - - - SSW 17 28 9 15 1014.1 1012.5 0.0
26/01:00pm 33.9 - - - - SSE 17 32 9 17 1014.5 1012.9 0.0
26/12:30pm 33.5 - - - - SSE 11 24 6 13 1014.9 1013.3 0.0
26/12:00pm 33.1 - - - - E 13 26 7 14 1015.2 1013.7 0.0
26/11:30am 32.1 - - - - SE 15 22 8 12 1015.2 1013.7 0.0
26/11:00am 31.1 - - - - SE 19 26 10 14 1015.3 1013.8 0.0
26/10:30am 29.9 - - - - SE 20 24 11 13 1015.3 1013.8 0.0
26/10:00am 28.6 - - - - SE 20 28 11 15 1015.2 1013.7 0.0
26/09:30am 26.8 - - - - SE 20 26 11 14 1015.1 1013.6 0.0
26/09:00am 25.2 - - - - SE 22 30 12 16 1015.1 1013.6 0.0
26/08:30am 24.5 - - - - SSE 19 24 10 13 1014.9 1013.3 0.0
26/08:00am 22.9 - - - - SSE 17 20 9 11 1014.7 1013.1 0.0
26/07:30am 21.8 - - - - S 17 20 9 11 1014.3 1012.7 0.0
26/07:00am 21.5 - - - - S 17 20 9 11 1013.9 1012.3 0.0
26/06:30am 22.2 - - - - S 20 24 11 13 1013.5 1011.9 0.0
26/06:00am 22.5 - - - - S 20 24 11 13 1013.2 1011.6 0.0
26/05:30am 23.1 - - - - SSE 20 24 11 13 1013.1 1011.5 0.0
26/05:00am 23.5 - - - - SSE 19 22 10 12 1013.0 1011.4 0.0
26/04:30am 24.0 - - - - SSE 20 22 11 12 1013.1 1011.5 0.0
26/04:00am 24.5 - - - - SSE 19 22 10 12 1012.9 1011.3 0.0
26/03:30am 25.2 - - - - SSE 24 33 13 18 1012.8 1011.2 0.0
26/03:00am 25.5 - - - - SSE 22 28 12 15 1012.8 1011.2 0.0
26/02:30am 26.0 - - - - S 24 30 13 16 1012.6 1011.1 0.0
26/02:00am 26.9 - - - - SSE 17 20 9 11 1012.5 1011.0 0.0
26/01:30am 26.5 - - - - S 13 17 7 9 1012.8 1011.2 0.0
26/01:00am 26.8 - - - - S 15 17 8 9 1012.9 1011.3 0.0
26/12:30am 27.6 - - - - SSE 17 20 9 11 1013.0 1011.4 0.0
26/12:00am 28.2 - - - - SE 13 17 7 9 1013.1 1011.5 0.0
 
Date/Time
CDT
Temp
°C
App
Temp
°C
Dew
Point
°C
Rel
Hum
%
Delta-T
°C
Wind Press
QNH
hPa
Press
MSL
hPa
Rain since
9am
mm
Dir  Spd
km/h
Gust
km/h
Spd
kts
Gust
kts
25/11:30pm 28.1 - - - - SE 11 17 6 9 1012.9 1011.3 0.0
25/11:00pm 28.0 - - - - S 15 15 8 8 1012.8 1011.2 0.0
25/10:30pm 28.8 - - - - S 11 13 6 7 1012.8 1011.2 0.0
25/10:00pm 29.6 - - - - S 13 13 7 7 1012.4 1010.9 0.0
25/09:30pm 30.6 - - - - S 13 15 7 8 1012.3 1010.8 0.0
25/09:00pm 32.0 - - - - S 17 19 9 10 1012.1 1010.6 0.0
25/08:30pm 32.8 - - - - S 13 20 7 11 1011.9 1010.4 0.0
25/08:00pm 33.3 - - - - SSE 17 26 9 14 1011.6 1010.1 0.0
25/07:30pm 33.8 - - - - SSW 19 24 10 13 1011.4 1009.9 0.0
25/07:00pm 34.1 - - - - SSE 17 26 9 14 1011.2 1009.7 0.0
25/06:30pm 33.7 - - - - SSE 17 28 9 15 1011.2 1009.7 0.0
25/06:00pm 34.1 - - - - S 13 20 7 11 1011.1 1009.6 0.0
25/05:30pm 34.6 - - - - SSW 7 20 4 11 1011.3 1009.8 0.0
25/05:00pm 33.7 - - - - SSE 15 28 8 15 1011.6 1010.1 0.0
25/04:30pm 34.8 - - - - SE 13 24 7 13 1011.9 1010.4 0.0
25/04:00pm 33.1 - - - - SSE 11 19 6 10 1012.1 1010.6 0.0
25/03:30pm 32.3 - - - - SSW 13 26 7 14 1012.3 1010.8 0.0
25/03:00pm 33.1 - - - - SW 9 19 5 10 1012.9 1011.3 0.0
25/02:30pm 32.0 - - - - SE 11 22 6 12 1013.6 1012.0 0.0
25/02:00pm 31.3 - - - - ESE 11 19 6 10 1014.1 1012.5 0.0
25/01:30pm 31.5 - - - - S 7 24 4 13 1014.6 1013.0 0.0
25/01:00pm 30.5 - - - - SW 9 19 5 10 1014.9 1013.3 0.0
25/12:30pm 30.4 - - - - SSW 11 17 6 9 1015.2 1013.7 0.0
25/12:00pm 29.3 - - - - SE 11 22 6 12 1015.7 1014.2 0.0
25/11:30am 28.7 - - - - ESE 15 24 8 13 1016.0 1014.5 0.0
25/11:00am 28.2 - - - - SE 19 28 10 15 1016.0 1014.5 0.0
25/10:30am 27.7 - - - - ESE 19 26 10 14 1016.3 1014.8 0.0
25/10:00am 26.7 - - - - SE 22 26 12 14 1016.2 1014.7 0.0
25/09:30am 25.1 - - - - SE 20 26 11 14 1016.0 1014.5 0.0
25/09:00am 23.2 - - - - SE 24 28 13 15 1015.8 1014.3 0.0
25/08:30am 21.5 - - - - SE 24 30 13 16 1015.6 1014.1 0.0
25/08:00am 20.6 - - - - SSE 20 26 11 14 1015.3 1013.8 0.0
25/07:30am 19.4 - - - - SSE 15 17 8 9 1015.3 1013.8 0.0
25/07:00am 19.1 - - - - S 17 19 9 10 1015.0 1013.4 0.0
25/06:30am 19.4 - - - - S 17 22 9 12 1014.8 1013.2 0.0
25/06:00am 20.0 - - - - S 20 24 11 13 1014.7 1013.1 0.0
25/05:30am 20.4 - - - - S 19 22 10 12 1014.4 1012.8 0.0
25/05:00am 20.7 - - - - SSE 19 26 10 14 1014.4 1012.8 0.0
25/04:30am 20.1 - - - - ESE 13 15 7 8 1014.1 1012.5 0.0
25/04:00am 20.5 - - - - ESE 13 15 7 8 1014.2 1012.6 0.0
25/03:30am 21.4 - - - - ESE 15 17 8 9 1014.4 1012.8 0.0
25/03:00am 21.3 - - - - ESE 15 15 8 8 1014.4 1012.8 0.0
25/02:30am 21.5 - - - - E 15 15 8 8 1014.7 1013.1 0.0
25/02:00am 22.2 - - - - ESE 13 15 7 8 1014.8 1013.2 0.0
25/01:30am 22.7 - - - - ESE 15 15 8 8 1015.0 1013.4 0.0
25/01:00am 23.0 - - - - SE 15 15 8 8 1015.1 1013.6 0.0
25/12:30am 24.0 - - - - SE 13 15 7 8 1015.1 1013.6 0.0
25/12:00am 24.4 - - - - SSE 13 15 7 8 1015.0 1013.4 0.0
 
Date/Time
CDT
Temp
°C
App
Temp
°C
Dew
Point
°C
Rel
Hum
%
Delta-T
°C
Wind Press
QNH
hPa
Press
MSL
hPa
Rain since
9am
mm
Dir  Spd
km/h
Gust
km/h
Spd
kts
Gust
kts
24/11:30pm 24.2 - - - - S 11 11 6 6 1015.0 1013.4 0.0
24/11:00pm 25.1 - - - - S 11 13 6 7 1014.9 1013.3 0.0
24/10:30pm 25.9 - - - - S 13 13 7 7 1014.7 1013.1 0.0
24/10:00pm 26.6 - - - - S 13 15 7 8 1014.4 1012.8 0.0
24/09:30pm 27.3 - - - - S 15 17 8 9 1014.1 1012.5 0.0
24/09:00pm 27.9 - - - - S 17 20 9 11 1013.8 1012.2 0.0
24/08:30pm 28.4 - - - - S 19 24 10 13 1013.4 1011.8 0.0
24/08:00pm 28.9 - - - - SSE 19 30 10 16 1013.0 1011.4 0.0
24/07:30pm 29.2 - - - - S 17 24 9 13 1012.6 1011.1 0.0
24/07:00pm 29.2 - - - - S 20 30 11 16 1012.4 1010.9 0.0
24/06:30pm 29.6 - - - - S 22 35 12 19 1012.3 1010.8 0.0
24/06:00pm 29.3 - - - - SSW 20 30 11 16 1012.4 1010.9 0.0
24/05:30pm 29.0 - - - - SSW 17 28 9 15 1012.9 1011.3 0.0
24/05:00pm 29.1 - - - - SW 13 22 7 12 1013.4 1011.8 0.0
24/04:30pm 28.9 - - - - SSW 17 24 9 13 1013.7 1012.1 0.0
24/04:00pm 28.8 - - - - SSW 11 22 6 12 1013.9 1012.3 0.0
24/03:30pm 27.3 - - - - SSE 15 28 8 15 1014.3 1012.7 0.0
24/03:00pm 26.8 - - - - S 13 22 7 12 1014.8 1013.2 0.0
24/02:30pm 26.6 - - - - ESE 13 26 7 14 1015.3 1013.8 0.0
24/02:00pm 25.8 - - - - SE 13 19 7 10 1015.7 1014.2 0.0
24/01:30pm 25.9 - - - - SSE 17 28 9 15 1016.3 1014.8 0.0

Other formats

Comma delimited format used in spreadsheet applications
http://www.bom.gov.au/fwo/IDS60801/IDS60801.95458.axf

JavaScript Object Notation format (JSON) in row-major order
http://www.bom.gov.au/fwo/IDS60801/IDS60801.95458.json

Data quality

Most of these data are generated automatically and are frequently updated. Quality checks on data are not normally performed. It is possible for incorrect values to appear. Refer to information at About Latest Weather Observations and please check the disclaimer before using these data.